createdAt,value
2022-09-13T00:01:55.484Z,1.30
2022-09-13T00:05:03.732Z,1.50
2022-09-13T00:08:14.269Z,1.50
2022-09-13T00:11:25.714Z,1.30
2022-09-13T00:14:34.058Z,1.20
2022-09-13T00:17:43.675Z,1.50
2022-09-13T00:21:07.753Z,1.40
2022-09-13T00:24:17.540Z,1.27
2022-09-13T00:27:26.006Z,1.30
2022-09-13T00:30:35.037Z,1.20
2022-09-13T00:33:43.451Z,1.30
2022-09-13T00:36:51.821Z,1.27
2022-09-13T00:40:01.494Z,15.07
2022-09-13T00:43:18.505Z,12.37
2022-09-13T00:46:37.707Z,4.50
2022-09-13T00:49:50.897Z,2.47
2022-09-13T00:53:06.626Z,2.30
2022-09-13T00:56:24.921Z,1.50
2022-09-13T00:59:42.013Z,1.97
2022-09-13T01:02:57.198Z,1.70
2022-09-13T01:06:11.073Z,1.50
2022-09-13T01:09:19.213Z,1.30
2022-09-13T01:12:40.881Z,1.63
2022-09-13T01:15:49.389Z,1.23
2022-09-13T01:18:57.765Z,1.00
2022-09-13T01:22:57.409Z,1.20
2022-09-13T01:27:16.738Z,1.00
2022-09-13T01:30:35.722Z,1.10
2022-09-13T01:34:06.096Z,1.10
2022-09-13T01:37:36.668Z,1.10
2022-09-13T01:41:04.772Z,1.07
2022-09-13T01:44:26.573Z,1.23
2022-09-13T01:47:50.392Z,1.10
2022-09-13T01:51:06.531Z,1.00
2022-09-13T01:54:23.391Z,1.13
2022-09-13T01:57:38.290Z,1.10
2022-09-13T02:00:55.928Z,1.00
2022-09-13T02:04:13.225Z,1.07
2022-09-13T02:07:26.088Z,1.30
2022-09-13T02:10:41.199Z,1.00
2022-09-13T02:13:58.130Z,1.10
2022-09-13T02:17:12.677Z,1.10
2022-09-13T02:20:29.647Z,0.90
2022-09-13T02:23:43.209Z,1.03
2022-09-13T02:26:56.850Z,0.90
2022-09-13T02:30:10.188Z,1.00
2022-09-13T02:33:25.643Z,0.90
2022-09-13T02:36:42.004Z,1.00
2022-09-13T02:39:58.476Z,0.80
2022-09-13T02:43:13.028Z,0.80
2022-09-13T02:46:38.127Z,0.80
2022-09-13T02:49:58.777Z,1.10
2022-09-13T02:53:20.813Z,0.93
2022-09-13T02:56:41.861Z,1.00
2022-09-13T02:59:50.705Z,0.90
2022-09-13T03:03:04.237Z,0.97
2022-09-13T03:06:12.745Z,0.90
2022-09-13T03:09:23.404Z,1.00
2022-09-13T03:12:52.719Z,0.97
2022-09-13T03:16:16.011Z,0.90
2022-09-13T03:19:47.839Z,1.00
2022-09-13T03:23:28.378Z,0.80
2022-09-13T03:26:53.276Z,1.00
2022-09-13T03:30:07.726Z,1.00
2022-09-13T03:33:27.446Z,1.00
2022-09-13T03:36:42.958Z,0.97
2022-09-13T03:40:00.644Z,1.00
2022-09-13T03:43:17.097Z,0.83
2022-09-13T03:46:32.542Z,0.80
2022-09-13T03:49:41.599Z,0.87
2022-09-13T03:52:57.418Z,1.03
2022-09-13T03:56:14.781Z,1.03
2022-09-13T03:59:24.444Z,0.93
2022-09-13T04:02:32.916Z,0.97
2022-09-13T04:05:41.571Z,0.70
2022-09-13T04:08:50.214Z,0.80
2022-09-13T04:11:58.896Z,0.73
2022-09-13T04:15:11.297Z,0.90
2022-09-13T04:18:20.372Z,1.07
2022-09-13T04:21:28.631Z,1.13
2022-09-13T04:24:40.078Z,1.10
2022-09-13T04:27:48.476Z,0.97
2022-09-13T04:31:00.323Z,1.00
2022-09-13T04:34:10.422Z,0.97
2022-09-13T04:37:19.199Z,1.17
2022-09-13T04:40:27.487Z,1.50
2022-09-13T04:43:35.652Z,1.10
2022-09-13T04:46:49.426Z,0.83
2022-09-13T04:49:58.329Z,1.03
2022-09-13T04:53:07.020Z,0.83
2022-09-13T04:56:17.998Z,1.00
2022-09-13T04:59:26.461Z,1.00
2022-09-13T05:02:36.449Z,0.80
2022-09-13T05:05:45.557Z,0.90
2022-09-13T05:08:57.452Z,0.90
2022-09-13T05:12:06.524Z,0.77
2022-09-13T05:15:14.709Z,0.87
2022-09-13T05:18:24.582Z,1.00
2022-09-13T05:21:33.594Z,0.87
2022-09-13T05:24:42.039Z,0.90
2022-09-13T05:27:50.141Z,0.90
2022-09-13T05:31:00.446Z,1.30
2022-09-13T05:34:13.982Z,0.93
2022-09-13T05:37:22.357Z,1.67
2022-09-13T05:40:32.714Z,1.00
2022-09-13T05:43:41.012Z,1.40
2022-09-13T05:46:49.745Z,1.30
2022-09-13T05:50:10.222Z,1.60
2022-09-13T05:53:18.818Z,2.07
2022-09-13T05:56:30.138Z,1.63
2022-09-13T05:59:38.310Z,1.53
2022-09-13T06:02:46.576Z,1.13
2022-09-13T06:05:59.702Z,0.90
2022-09-13T06:09:11.019Z,1.00
2022-09-13T06:12:21.067Z,0.70
2022-09-13T06:15:29.648Z,0.97
2022-09-13T06:18:40.530Z,1.00
2022-09-13T06:21:53.421Z,0.90
2022-09-13T06:25:01.962Z,0.53
2022-09-13T06:28:11.080Z,0.47
2022-09-13T06:31:23.373Z,0.50
2022-09-13T06:34:34.545Z,0.50
2022-09-13T06:37:47.279Z,0.50
2022-09-13T06:41:02.988Z,0.50
2022-09-13T06:44:11.492Z,0.60
2022-09-13T06:47:19.742Z,0.60
2022-09-13T06:50:28.233Z,0.37
2022-09-13T06:53:38.995Z,0.90
2022-09-13T06:56:47.319Z,0.33
2022-09-13T06:59:55.843Z,0.50
2022-09-13T07:03:04.368Z,0.40
2022-09-13T07:06:19.111Z,0.30
2022-09-13T07:09:31.288Z,0.30
2022-09-13T07:12:42.639Z,0.43
2022-09-13T07:15:55.110Z,0.50
2022-09-13T07:19:07.372Z,0.30
2022-09-13T07:22:16.701Z,0.30
2022-09-13T07:25:34.387Z,0.30
2022-09-13T07:28:46.360Z,0.30
2022-09-13T07:31:56.743Z,0.30
2022-09-13T07:35:06.796Z,0.20
2022-09-13T07:38:15.245Z,0.43
2022-09-13T07:41:27.927Z,0.47
2022-09-13T07:44:36.349Z,0.30
2022-09-13T07:47:44.708Z,0.33
2022-09-13T07:51:01.697Z,0.30
2022-09-13T07:54:15.001Z,0.33
2022-09-13T07:57:24.699Z,0.40
2022-09-13T08:00:33.432Z,0.40
2022-09-13T08:03:42.599Z,0.50
2022-09-13T08:06:51.828Z,0.40
2022-09-13T08:10:09.200Z,0.50
2022-09-13T08:13:26.558Z,0.40
2022-09-13T08:16:36.888Z,0.43
2022-09-13T08:19:48.270Z,0.50
2022-09-13T08:23:03.804Z,0.30
2022-09-13T08:26:21.228Z,0.43
2022-09-13T08:30:30.019Z,0.20
2022-09-13T08:33:52.379Z,0.30
2022-09-13T08:37:01.275Z,0.50
2022-09-13T08:40:18.280Z,0.40
2022-09-13T08:43:49.934Z,0.30
2022-09-13T08:47:31.421Z,0.30
2022-09-13T08:50:45.420Z,0.30
2022-09-13T08:53:53.993Z,0.40
2022-09-13T08:57:21.123Z,0.30
2022-09-13T09:00:44.075Z,0.40
2022-09-13T09:04:11.699Z,0.40
2022-09-13T09:07:25.407Z,0.30
2022-09-13T09:10:42.019Z,0.40
2022-09-13T09:13:58.641Z,0.50
2022-09-13T09:17:17.681Z,0.33
2022-09-13T09:20:37.995Z,0.30
2022-09-13T09:23:52.497Z,0.20
2022-09-13T09:27:11.775Z,0.40
2022-09-13T09:30:20.561Z,0.30
2022-09-13T09:33:57.271Z,0.37
2022-09-13T09:37:21.071Z,0.30
2022-09-13T09:40:31.795Z,0.30
2022-09-13T09:43:47.172Z,0.40
2022-09-13T09:47:02.513Z,0.30
2022-09-13T09:50:17.959Z,0.40
2022-09-13T09:53:36.651Z,0.40
2022-09-13T09:56:55.744Z,0.40
2022-09-13T10:00:14.643Z,0.33
2022-09-13T10:03:28.737Z,0.40
2022-09-13T10:06:40.695Z,0.40
2022-09-13T10:10:21.701Z,0.30
2022-09-13T10:13:33.808Z,0.30
2022-09-13T10:16:43.639Z,0.40
2022-09-13T10:20:02.812Z,0.40
2022-09-13T10:23:20.050Z,0.40
2022-09-13T10:26:37.104Z,0.40
2022-09-13T10:29:55.528Z,0.40
2022-09-13T10:33:07.285Z,0.40
2022-09-13T10:36:48.296Z,0.50
2022-09-13T10:40:14.300Z,0.40
2022-09-13T10:43:30.295Z,0.30
2022-09-13T10:46:45.147Z,0.43
2022-09-13T10:50:02.080Z,0.70
2022-09-13T10:53:40.429Z,0.40
2022-09-13T10:56:50.815Z,0.30
2022-09-13T11:00:00.839Z,0.30
2022-09-13T11:03:34.137Z,0.30
2022-09-13T11:06:52.368Z,0.30
2022-09-13T11:10:19.216Z,0.50
2022-09-13T11:13:48.596Z,0.40
2022-09-13T11:17:15.461Z,0.57
2022-09-13T11:20:39.833Z,0.30
2022-09-13T11:24:14.138Z,0.40
2022-09-13T11:27:37.146Z,0.23
2022-09-13T11:31:12.273Z,0.40
2022-09-13T11:34:45.618Z,0.20
2022-09-13T11:38:07.024Z,0.30
2022-09-13T11:41:35.480Z,0.20
2022-09-13T11:45:23.746Z,0.30
2022-09-13T11:49:10.457Z,0.27
2022-09-13T11:52:44.174Z,0.30
2022-09-13T11:56:06.638Z,0.20
2022-09-13T11:59:26.586Z,0.30
2022-09-13T12:02:46.533Z,0.30
2022-09-13T12:06:02.997Z,0.30
2022-09-13T12:09:22.060Z,0.20
2022-09-13T12:15:52.311Z,0.20
2022-09-13T12:19:06.339Z,0.30
2022-09-13T12:22:15.866Z,0.23
2022-09-13T12:25:35.153Z,0.20
2022-09-13T12:28:54.402Z,0.47
2022-09-13T12:32:07.867Z,0.13
2022-09-13T12:35:28.430Z,0.40
2022-09-13T12:39:31.500Z,0.20
2022-09-13T12:43:24.113Z,0.30
2022-09-13T12:47:18.270Z,0.20
2022-09-13T12:50:58.417Z,0.10
2022-09-13T12:54:48.060Z,0.30
2022-09-13T12:58:16.663Z,0.30
2022-09-13T13:01:31.205Z,0.20
2022-09-13T13:04:45.241Z,0.30
2022-09-13T13:08:00.024Z,0.30
2022-09-13T13:11:13.793Z,0.30
2022-09-13T13:14:47.448Z,0.20
2022-09-13T13:17:59.036Z,0.30
2022-09-13T13:21:47.077Z,0.20
2022-09-13T13:24:56.963Z,0.30
2022-09-13T13:28:33.815Z,0.23
2022-09-13T13:31:47.450Z,0.20
2022-09-13T13:34:55.860Z,1.80
2022-09-13T13:38:42.546Z,0.30
2022-09-13T13:41:56.411Z,0.30
2022-09-13T13:45:29.342Z,0.17
2022-09-13T13:48:42.203Z,0.20
2022-09-13T13:52:40.078Z,0.20
2022-09-13T13:56:08.924Z,0.20
2022-09-13T13:59:26.830Z,0.23
2022-09-13T14:02:46.519Z,0.20
2022-09-13T14:06:12.414Z,0.30
2022-09-13T14:09:39.897Z,0.20
2022-09-13T14:13:16.910Z,0.20
2022-09-13T14:16:52.100Z,0.27
2022-09-13T14:20:06.489Z,0.37
2022-09-13T14:23:20.157Z,0.20
2022-09-13T14:26:28.490Z,0.37
2022-09-13T14:29:37.352Z,0.27
2022-09-13T14:32:49.027Z,0.20
2022-09-13T14:36:05.101Z,0.20
2022-09-13T14:39:14.756Z,0.30
2022-09-13T14:42:23.671Z,0.30
2022-09-13T14:45:39.257Z,0.17
2022-09-13T14:48:52.565Z,0.17
2022-09-13T14:52:07.158Z,0.40
2022-09-13T14:55:23.885Z,0.20
2022-09-13T14:58:45.487Z,0.20
2022-09-13T15:02:02.869Z,0.30
2022-09-13T15:05:30.862Z,0.20
2022-09-13T15:08:47.334Z,0.27
2022-09-13T15:12:02.914Z,0.27
2022-09-13T15:15:35.346Z,0.20
2022-09-13T15:18:51.141Z,0.33
2022-09-13T15:22:15.229Z,0.20
2022-09-13T15:25:28.013Z,0.40
2022-09-13T15:28:53.706Z,0.30
2022-09-13T15:32:03.007Z,0.20
2022-09-13T15:35:23.495Z,0.27
2022-09-13T15:38:35.332Z,0.30
2022-09-13T15:41:58.121Z,0.30
2022-09-13T15:45:13.942Z,0.23
2022-09-13T15:48:32.619Z,0.30
2022-09-13T15:51:52.930Z,0.20
2022-09-13T15:55:04.265Z,0.33
2022-09-13T15:58:14.212Z,0.40
2022-09-13T16:01:31.134Z,0.60
2022-09-13T16:04:42.352Z,0.53
2022-09-13T16:07:52.707Z,0.40
2022-09-13T16:11:01.428Z,0.40
2022-09-13T16:14:12.334Z,0.57
2022-09-13T16:17:26.948Z,0.53
2022-09-13T16:20:37.392Z,0.43
2022-09-13T16:23:46.126Z,0.37
2022-09-13T16:26:56.720Z,0.60
2022-09-13T16:30:06.503Z,0.50
2022-09-13T16:33:16.392Z,0.50
2022-09-13T16:36:28.721Z,0.50
2022-09-13T16:39:37.113Z,0.50
2022-09-13T16:42:45.693Z,0.50
2022-09-13T16:45:54.075Z,0.50
2022-09-13T16:49:04.721Z,0.40
2022-09-13T16:52:13.120Z,0.50
2022-09-13T16:55:21.520Z,0.70
2022-09-13T16:58:38.643Z,0.70
2022-09-13T17:01:47.157Z,0.70
2022-09-13T17:04:56.920Z,0.70
2022-09-13T17:08:05.898Z,0.73
2022-09-13T17:11:18.503Z,0.97
2022-09-13T17:14:27.542Z,0.70
2022-09-13T17:17:36.424Z,0.50
2022-09-13T17:20:48.573Z,0.60
2022-09-13T17:23:56.887Z,0.70
2022-09-13T17:27:08.000Z,0.80
2022-09-13T17:30:17.077Z,0.80
2022-09-13T17:33:25.328Z,0.60
2022-09-13T17:36:40.195Z,0.80
2022-09-13T17:39:49.344Z,0.87
2022-09-13T17:42:58.412Z,0.80
2022-09-13T17:46:13.295Z,0.60
2022-09-13T17:49:26.388Z,0.90
2022-09-13T17:52:36.426Z,1.00
2022-09-13T17:55:53.208Z,1.57
2022-09-13T17:59:10.461Z,1.60
2022-09-13T18:02:28.444Z,1.90
2022-09-13T18:05:42.700Z,1.63
2022-09-13T18:08:55.588Z,1.60
2022-09-13T18:12:08.957Z,1.30
2022-09-13T18:15:22.936Z,1.30
2022-09-13T18:18:33.767Z,1.10
2022-09-13T18:21:42.493Z,0.97
2022-09-13T18:25:01.475Z,1.50
2022-09-13T18:28:10.498Z,1.57
2022-09-13T18:31:22.447Z,1.40
2022-09-13T18:34:30.815Z,2.07
2022-09-13T18:37:39.866Z,1.80
2022-09-13T18:41:03.869Z,2.17
2022-09-13T18:44:20.217Z,1.93
2022-09-13T18:47:33.036Z,2.03
2022-09-13T18:50:44.504Z,1.53
2022-09-13T18:53:53.355Z,1.60
2022-09-13T18:57:03.767Z,1.80
2022-09-13T19:00:15.779Z,1.77
2022-09-13T19:03:25.243Z,1.87
2022-09-13T19:06:39.838Z,1.83
2022-09-13T19:09:50.716Z,1.73
2022-09-13T19:13:02.606Z,2.87
2022-09-13T19:16:15.694Z,4.17
2022-09-13T19:19:24.836Z,3.93
2022-09-13T19:22:33.715Z,3.53
2022-09-13T19:25:42.239Z,2.80
2022-09-13T19:28:59.730Z,2.23
2022-09-13T19:32:08.763Z,1.50
2022-09-13T19:35:18.163Z,1.73
2022-09-13T19:38:27.420Z,1.83
2022-09-13T19:41:38.332Z,1.90
2022-09-13T19:44:50.463Z,1.57
2022-09-13T19:51:37.828Z,1.77
2022-09-13T19:54:48.992Z,1.70
2022-09-13T19:57:57.467Z,2.03
2022-09-13T20:01:12.096Z,1.50
2022-09-13T20:04:25.169Z,1.30
2022-09-13T20:07:33.553Z,2.40
2022-09-13T20:10:44.148Z,2.93
2022-09-13T20:13:52.939Z,4.10
2022-09-13T20:17:07.331Z,3.57
2022-09-13T20:20:16.093Z,3.43
2022-09-13T20:23:29.410Z,2.80
2022-09-13T20:26:38.149Z,2.70
2022-09-13T20:29:48.057Z,2.30
2022-09-13T20:32:57.974Z,2.00
2022-09-13T20:36:13.655Z,2.40
2022-09-13T20:39:21.920Z,2.17
2022-09-13T20:42:36.045Z,2.13
2022-09-13T20:45:44.279Z,2.03
2022-09-13T20:49:04.756Z,1.63
2022-09-13T20:52:14.286Z,1.70
2022-09-13T20:55:22.523Z,1.60
2022-09-13T20:58:31.165Z,1.73
2022-09-13T21:01:40.234Z,1.97
2022-09-13T21:04:49.831Z,1.63
2022-09-13T21:08:15.820Z,1.70
2022-09-13T21:11:29.234Z,1.20
2022-09-13T21:14:39.948Z,1.20
2022-09-13T21:17:48.555Z,1.03
2022-09-13T21:20:59.687Z,1.30
2022-09-13T21:24:14.466Z,1.63
2022-09-13T21:27:23.009Z,1.33
2022-09-13T21:30:31.315Z,1.53
2022-09-13T21:33:39.763Z,1.73
2022-09-13T21:36:49.818Z,1.40
2022-09-13T21:39:58.261Z,1.40
2022-09-13T21:43:06.820Z,1.53
2022-09-13T21:46:18.667Z,1.40
2022-09-13T21:49:27.686Z,1.60
2022-09-13T21:52:37.283Z,1.30
2022-09-13T21:55:46.537Z,1.10
2022-09-13T21:58:59.287Z,1.30
2022-09-13T22:02:08.190Z,1.20
2022-09-13T22:05:16.799Z,1.27
2022-09-13T22:08:27.023Z,1.20
2022-09-13T22:11:39.112Z,1.40
2022-09-13T22:14:48.519Z,1.40
2022-09-13T22:17:56.647Z,1.20
2022-09-13T22:21:07.189Z,1.57
2022-09-13T22:24:19.624Z,1.33
2022-09-13T22:27:28.347Z,1.20
2022-09-13T22:30:36.786Z,1.33
2022-09-13T22:33:45.557Z,1.23
2022-09-13T22:36:55.771Z,1.50
2022-09-13T22:40:06.542Z,1.43
2022-09-13T22:43:14.977Z,1.50
2022-09-13T22:46:27.220Z,1.50
2022-09-13T22:49:35.398Z,1.37
2022-09-13T22:52:43.652Z,1.30
2022-09-13T22:55:54.683Z,1.27
2022-09-13T22:59:06.184Z,1.40
2022-09-13T23:02:14.381Z,1.10
2022-09-13T23:05:22.503Z,1.30
2022-09-13T23:08:31.136Z,1.40
2022-09-13T23:11:42.054Z,1.03
2022-09-13T23:14:50.146Z,1.37
2022-09-13T23:17:59.100Z,1.30
2022-09-13T23:21:07.952Z,1.33
2022-09-13T23:24:19.125Z,1.20
2022-09-13T23:27:29.021Z,1.20
2022-09-13T23:30:37.311Z,1.00
2022-09-13T23:33:48.381Z,1.20
2022-09-13T23:36:56.573Z,1.30
2022-09-13T23:40:05.115Z,1.30
2022-09-13T23:43:14.795Z,1.40
2022-09-13T23:46:23.398Z,1.30
2022-09-13T23:49:31.845Z,1.03
2022-09-13T23:52:40.253Z,1.27
2022-09-13T23:55:49.136Z,1.10
2022-09-13T23:59:01.337Z,1.20
